Time;durP1;ratioP1;P1;durP2;ratioP2;P2;SDS_P1;SDS_P2;PMS_P1;PMS_P2;Temp;Humidity;BMP_temperature;BMP_pressure;BME280_temperature;BME280_humidity;BME280_pressure;Samples;Min_cycle;Max_cycle;Signal;HPM_P1;HPM_P2
2023/01/21 00:01:41;;;;;;;46.40;22.07;;;;;;;;;;5101499;28;20184;-72
2023/01/21 00:04:06;;;;;;;50.53;22.73;;;;;;;;;;5101967;28;20211;-72
2023/01/21 00:06:31;;;;;;;50.87;20.60;;;;;;;;;;5101857;28;20219;-72
2023/01/21 00:08:57;;;;;;;47.90;23.53;;;;;;;;;;5082634;28;20200;-72
2023/01/21 00:11:22;;;;;;;52.70;21.97;;;;;;;;;;5083372;28;20557;-73
2023/01/21 00:13:47;;;;;;;52.67;23.47;;;;;;;;;;5099608;28;20176;-72
2023/01/21 00:16:13;;;;;;;47.23;21.93;;;;;;;;;;5102671;28;20199;-72
2023/01/21 00:18:38;;;;;;;51.10;22.50;;;;;;;;;;5105291;28;21619;-73
2023/01/21 00:21:04;;;;;;;46.10;21.77;;;;;;;;;;5106137;28;20660;-72
2023/01/21 00:23:29;;;;;;;47.40;22.50;;;;;;;;;;5105058;28;20176;-73
2023/01/21 00:26:01;;;;;;;55.43;21.47;;;;;;;;;;5106062;28;20268;-72
2023/01/21 00:28:30;;;;;;;47.73;22.10;;;;;;;;;;5105153;28;20648;-73
2023/01/21 00:30:59;;;;;;;47.17;22.70;;;;;;;;;;5101660;28;20183;-72
2023/01/21 00:33:25;;;;;;;52.77;21.83;;;;;;;;;;5105521;28;20179;-72
2023/01/21 00:35:57;;;;;;;54.00;22.77;;;;;;;;;;5106714;28;20217;-72
2023/01/21 00:38:22;;;;;;;49.77;22.03;;;;;;;;;;5101203;28;20189;-72
2023/01/21 00:40:48;;;;;;;51.23;22.57;;;;;;;;;;5103271;28;20183;-72
2023/01/21 00:43:13;;;;;;;54.87;22.47;;;;;;;;;;5104944;28;20206;-72
2023/01/21 00:45:38;;;;;;;46.13;20.43;;;;;;;;;;5105178;28;20217;-73
2023/01/21 00:48:03;;;;;;;52.60;23.47;;;;;;;;;;5100979;28;20179;-73
2023/01/21 00:50:29;;;;;;;60.87;22.77;;;;;;;;;;5106941;28;20171;-72
2023/01/21 00:52:54;;;;;;;53.17;21.27;;;;;;;;;;5105843;28;20312;-72
2023/01/21 00:55:19;;;;;;;48.20;21.77;;;;;;;;;;5104569;28;20200;-72
2023/01/21 00:57:44;;;;;;;49.53;22.70;;;;;;;;;;5104885;28;20203;-72
2023/01/21 01:00:11;;;;;;;44.57;20.07;;;;;;;;;;5105614;28;20380;-72
2023/01/21 01:02:37;;;;;;;46.20;22.17;;;;;;;;;;5105710;28;20190;-72
2023/01/21 01:05:02;;;;;;;48.93;21.90;;;;;;;;;;5105192;28;20294;-72
2023/01/21 01:07:27;;;;;;;49.43;20.70;;;;;;;;;;5104439;28;20231;-72
2023/01/21 01:09:52;;;;;;;45.50;21.00;;;;;;;;;;5106016;28;20175;-72
2023/01/21 01:12:17;;;;;;;46.97;21.43;;;;;;;;;;5104539;28;20230;-72
2023/01/21 01:14:43;;;;;;;54.00;23.83;;;;;;;;;;5104942;28;20176;-72
2023/01/21 01:17:08;;;;;;;50.17;21.47;;;;;;;;;;5104818;28;20199;-72
2023/01/21 01:19:33;;;;;;;52.03;22.17;;;;;;;;;;5106242;28;20176;-72
2023/01/21 01:21:58;;;;;;;51.47;21.07;;;;;;;;;;5105337;28;20172;-72
2023/01/21 01:24:23;;;;;;;49.13;20.93;;;;;;;;;;5106656;28;20675;-72
2023/01/21 01:26:49;;;;;;;48.47;19.40;;;;;;;;;;5112423;28;20253;-72
2023/01/21 01:29:14;;;;;;;48.63;21.93;;;;;;;;;;5109705;28;20255;-72
2023/01/21 01:31:39;;;;;;;48.97;23.23;;;;;;;;;;5089576;28;20172;-72
2023/01/21 01:34:04;;;;;;;42.97;20.43;;;;;;;;;;5108120;28;20679;-72
2023/01/21 01:36:29;;;;;;;49.40;19.47;;;;;;;;;;5107129;28;20203;-72
2023/01/21 01:38:55;;;;;;;45.10;18.03;;;;;;;;;;5111421;28;20196;-72
2023/01/21 01:41:22;;;;;;;43.07;19.83;;;;;;;;;;5110365;28;20197;-72
2023/01/21 01:43:56;;;;;;;42.73;18.80;;;;;;;;;;5101823;28;20188;-72
2023/01/21 01:46:22;;;;;;;44.07;21.13;;;;;;;;;;5088553;28;20199;-72
2023/01/21 01:48:50;;;;;;;44.07;19.10;;;;;;;;;;5100319;28;20171;-72
2023/01/21 01:51:17;;;;;;;43.97;19.50;;;;;;;;;;5099613;28;20175;-72
2023/01/21 01:53:44;;;;;;;45.00;20.23;;;;;;;;;;5104031;28;20246;-72
2023/01/21 01:56:09;;;;;;;45.13;19.93;;;;;;;;;;5104048;28;20203;-72
2023/01/21 01:58:35;;;;;;;41.13;18.17;;;;;;;;;;5102714;28;20199;-72
2023/01/21 02:01:00;;;;;;;44.97;20.10;;;;;;;;;;5104503;28;20244;-72
2023/01/21 02:03:51;;;;;;;45.13;20.53;;;;;;;;;;5104945;28;20203;-72
2023/01/21 02:06:17;;;;;;;38.03;17.77;;;;;;;;;;5102101;28;20210;-72
2023/01/21 02:08:46;;;;;;;46.43;19.13;;;;;;;;;;5104118;28;20588;-72
2023/01/21 02:11:12;;;;;;;47.40;20.87;;;;;;;;;;5104409;28;20188;-72
2023/01/21 02:13:39;;;;;;;41.13;19.03;;;;;;;;;;5085356;28;20179;-72
2023/01/21 02:16:10;;;;;;;46.33;19.77;;;;;;;;;;5103362;28;20210;-72
2023/01/21 02:18:35;;;;;;;41.60;18.80;;;;;;;;;;5102907;28;20797;-72
2023/01/21 02:21:03;;;;;;;39.33;18.23;;;;;;;;;;5104338;28;20183;-72
2023/01/21 02:23:38;;;;;;;45.67;19.40;;;;;;;;;;5088941;28;20619;-73
2023/01/21 02:26:12;;;;;;;41.73;18.57;;;;;;;;;;5105565;28;20211;-72
2023/01/21 02:28:40;;;;;;;42.33;18.97;;;;;;;;;;5100343;28;20172;-72
2023/01/21 02:31:11;;;;;;;49.67;19.57;;;;;;;;;;5109185;28;20179;-73
2023/01/21 02:33:52;;;;;;;43.83;19.63;;;;;;;;;;5104456;28;20180;-72
2023/01/21 02:36:17;;;;;;;41.30;19.17;;;;;;;;;;5102485;28;20221;-72
2023/01/21 02:38:56;;;;;;;46.50;20.43;;;;;;;;;;5100870;28;20653;-73
2023/01/21 02:41:40;;;;;;;47.20;18.80;;;;;;;;;;5108368;28;20183;-72
2023/01/21 02:44:06;;;;;;;46.27;19.53;;;;;;;;;;5089381;28;20193;-73
2023/01/21 02:46:36;;;;;;;48.67;21.20;;;;;;;;;;5108910;28;20211;-73
2023/01/21 02:49:05;;;;;;;44.50;19.30;;;;;;;;;;5085345;28;20184;-73
2023/01/21 02:51:30;;;;;;;46.53;19.90;;;;;;;;;;5107235;28;20221;-73
2023/01/21 02:53:55;;;;;;;43.47;18.70;;;;;;;;;;5102377;28;20202;-72
2023/01/21 02:56:23;;;;;;;43.90;20.10;;;;;;;;;;5102606;28;20667;-73
2023/01/21 02:59:07;;;;;;;38.77;19.13;;;;;;;;;;5103022;28;20199;-73
2023/01/21 03:01:38;;;;;;;43.53;18.70;;;;;;;;;;5102520;28;20191;-72
2023/01/21 03:04:03;;;;;;;41.63;17.63;;;;;;;;;;5084980;28;22096;-72
2023/01/21 03:06:29;;;;;;;45.60;18.07;;;;;;;;;;5102956;28;20207;-72
2023/01/21 03:09:12;;;;;;;45.37;20.80;;;;;;;;;;5103104;28;20656;-72
2023/01/21 03:11:39;;;;;;;43.43;17.97;;;;;;;;;;5101577;28;20171;-72
2023/01/21 03:17:02;;;;;;;42.87;17.83;;;;;;;;;;5108729;28;20256;-72
2023/01/21 03:19:33;;;;;;;46.60;18.40;;;;;;;;;;5106018;28;20232;-73
2023/01/21 03:22:01;;;;;;;50.30;19.83;;;;;;;;;;5091176;28;20190;-72
2023/01/21 03:24:26;;;;;;;44.70;18.93;;;;;;;;;;5099565;28;20244;-72
2023/01/21 03:26:52;;;;;;;48.27;19.63;;;;;;;;;;5108623;28;20241;-72
2023/01/21 03:29:21;;;;;;;47.70;19.97;;;;;;;;;;5108561;28;20267;-72
2023/01/21 03:31:49;;;;;;;43.27;18.07;;;;;;;;;;5107120;28;20175;-72
2023/01/21 03:34:15;;;;;;;43.37;19.93;;;;;;;;;;5107582;28;20180;-72
2023/01/21 03:36:43;;;;;;;42.23;19.30;;;;;;;;;;5106477;28;20267;-72
2023/01/21 03:39:13;;;;;;;42.77;20.23;;;;;;;;;;5103551;28;20278;-72
2023/01/21 03:41:38;;;;;;;47.47;20.87;;;;;;;;;;5103591;28;20661;-72
2023/01/21 03:44:03;;;;;;;42.07;18.57;;;;;;;;;;5104534;28;20187;-72
2023/01/21 03:46:35;;;;;;;44.17;19.37;;;;;;;;;;5102225;28;20585;-72
2023/01/21 03:49:03;;;;;;;42.20;18.77;;;;;;;;;;5103030;28;20172;-72
2023/01/21 03:51:32;;;;;;;42.87;18.20;;;;;;;;;;5105652;28;20190;-72
2023/01/21 03:53:58;;;;;;;44.43;20.43;;;;;;;;;;5111888;28;20168;-72
2023/01/21 03:56:26;;;;;;;44.87;19.63;;;;;;;;;;5108095;28;20743;-72
2023/01/21 03:58:52;;;;;;;48.30;19.70;;;;;;;;;;5111583;28;20254;-72
2023/01/21 04:01:17;;;;;;;40.13;18.90;;;;;;;;;;5108117;28;20639;-72
2023/01/21 04:03:42;;;;;;;44.57;19.90;;;;;;;;;;5099280;28;20184;-72
2023/01/21 04:06:12;;;;;;;45.93;19.97;;;;;;;;;;5098554;22;20207;-79
2023/01/21 04:08:37;;;;;;;41.37;19.23;;;;;;;;;;5086010;28;20275;-78
2023/01/21 04:11:02;;;;;;;42.20;19.60;;;;;;;;;;5076277;28;20275;-78
2023/01/21 04:13:27;;;;;;;44.23;19.73;;;;;;;;;;5087538;28;20171;-77
2023/01/21 04:15:52;;;;;;;47.33;20.77;;;;;;;;;;5079101;28;20267;-79
2023/01/21 04:18:18;;;;;;;40.30;19.23;;;;;;;;;;5072677;28;20200;-77
2023/01/21 04:20:44;;;;;;;40.40;17.67;;;;;;;;;;5074296;28;20643;-80
2023/01/21 04:23:10;;;;;;;45.13;18.33;;;;;;;;;;5056839;28;20588;-79
2023/01/21 04:25:35;;;;;;;47.13;19.43;;;;;;;;;;5056050;28;20200;-77
2023/01/21 04:28:00;;;;;;;43.87;19.27;;;;;;;;;;5057096;28;20205;-79
2023/01/21 04:30:25;;;;;;;48.07;20.43;;;;;;;;;;5036946;28;20182;-79
2023/01/21 04:32:51;;;;;;;43.80;19.93;;;;;;;;;;5060648;28;20169;-77
2023/01/21 04:35:16;;;;;;;54.80;20.53;;;;;;;;;;5057271;28;20180;-77
2023/01/21 04:37:41;;;;;;;42.03;18.97;;;;;;;;;;5057756;28;20210;-77
2023/01/21 04:40:06;;;;;;;46.67;18.20;;;;;;;;;;5056227;28;20692;-79
2023/01/21 04:42:31;;;;;;;44.77;18.77;;;;;;;;;;5038547;28;20186;-77
2023/01/21 04:44:57;;;;;;;45.40;19.47;;;;;;;;;;5042179;28;20714;-80
2023/01/21 04:47:22;;;;;;;45.37;20.57;;;;;;;;;;5064271;28;20233;-77
2023/01/21 04:49:47;;;;;;;40.50;18.00;;;;;;;;;;5063542;28;20220;-76
2023/01/21 04:52:13;;;;;;;41.13;19.43;;;;;;;;;;5056545;28;20183;-77
2023/01/21 04:54:38;;;;;;;48.63;19.83;;;;;;;;;;5073561;28;20188;-79
2023/01/21 04:57:03;;;;;;;45.73;19.77;;;;;;;;;;5076416;28;20266;-77
2023/01/21 04:59:28;;;;;;;40.07;17.17;;;;;;;;;;5073069;28;20678;-77
2023/01/21 05:01:53;;;;;;;45.70;19.40;;;;;;;;;;5072294;28;20192;-77
2023/01/21 05:04:19;;;;;;;41.97;18.87;;;;;;;;;;5071952;28;20196;-77
2023/01/21 05:06:44;;;;;;;45.57;18.40;;;;;;;;;;5071151;28;20283;-77
2023/01/21 05:09:10;;;;;;;47.90;19.00;;;;;;;;;;5072755;28;20263;-79
2023/01/21 05:11:35;;;;;;;48.73;18.87;;;;;;;;;;5055743;28;20177;-78
2023/01/21 05:14:00;;;;;;;47.20;19.53;;;;;;;;;;5073327;28;20567;-78
2023/01/21 05:16:25;;;;;;;44.73;19.50;;;;;;;;;;5055939;28;20208;-78
2023/01/21 05:18:51;;;;;;;43.50;18.97;;;;;;;;;;5077692;28;20180;-78
2023/01/21 05:21:16;;;;;;;48.50;20.07;;;;;;;;;;5072447;28;20200;-78
2023/01/21 05:23:41;;;;;;;54.93;20.13;;;;;;;;;;5077090;28;20202;-78
2023/01/21 05:26:06;;;;;;;45.13;18.80;;;;;;;;;;5083078;28;20212;-78
2023/01/21 05:28:31;;;;;;;46.63;18.90;;;;;;;;;;5075129;28;20875;-78
2023/01/21 05:31:00;;;;;;;50.37;20.60;;;;;;;;;;5075180;28;20558;-78
2023/01/21 05:33:29;;;;;;;43.87;18.97;;;;;;;;;;5073222;28;20174;-79
2023/01/21 05:35:55;;;;;;;50.83;21.47;;;;;;;;;;5075116;28;20212;-79
2023/01/21 05:38:20;;;;;;;46.60;20.53;;;;;;;;;;5079943;28;20181;-79
2023/01/21 05:40:45;;;;;;;53.33;20.53;;;;;;;;;;5068934;28;20185;-79
2023/01/21 05:43:10;;;;;;;48.40;19.67;;;;;;;;;;5070662;28;20591;-79
2023/01/21 05:45:35;;;;;;;50.97;21.70;;;;;;;;;;5069397;28;20313;-77
2023/01/21 05:48:01;;;;;;;49.80;21.67;;;;;;;;;;5072395;28;20189;-78
2023/01/21 05:50:26;;;;;;;47.17;20.20;;;;;;;;;;5081115;28;20557;-78
2023/01/21 05:52:51;;;;;;;51.60;20.33;;;;;;;;;;5060051;28;20184;-78
2023/01/21 05:55:16;;;;;;;52.33;21.33;;;;;;;;;;5073500;28;20200;-78
2023/01/21 05:57:42;;;;;;;47.33;20.77;;;;;;;;;;5061075;28;20203;-77
2023/01/21 06:00:07;;;;;;;55.57;21.73;;;;;;;;;;5055794;28;20187;-78
2023/01/21 06:02:32;;;;;;;48.97;20.50;;;;;;;;;;5071089;28;20684;-78
2023/01/21 06:04:57;;;;;;;55.83;21.13;;;;;;;;;;5070578;28;20206;-78
2023/01/21 06:07:23;;;;;;;64.50;22.80;;;;;;;;;;5059638;28;20678;-78
2023/01/21 06:09:48;;;;;;;50.50;19.23;;;;;;;;;;5077523;28;20209;-77
2023/01/21 06:12:13;;;;;;;51.73;19.83;;;;;;;;;;5077476;28;20268;-78
2023/01/21 06:14:38;;;;;;;59.67;21.20;;;;;;;;;;5066297;28;20185;-78
2023/01/21 06:17:03;;;;;;;48.17;19.63;;;;;;;;;;5069828;28;20930;-78
2023/01/21 06:19:29;;;;;;;48.67;20.60;;;;;;;;;;5071930;28;20226;-77
2023/01/21 06:21:54;;;;;;;55.67;23.60;;;;;;;;;;5081496;28;20202;-78
2023/01/21 06:24:19;;;;;;;52.90;22.13;;;;;;;;;;5079445;28;20234;-77
2023/01/21 06:26:44;;;;;;;49.80;19.37;;;;;;;;;;5072965;28;20200;-77
2023/01/21 06:29:09;;;;;;;55.90;22.13;;;;;;;;;;5048879;28;20177;-78
2023/01/21 06:31:35;;;;;;;49.87;20.20;;;;;;;;;;5075093;28;20184;-79
2023/01/21 06:34:00;;;;;;;51.70;19.87;;;;;;;;;;5077389;28;20705;-78
2023/01/21 06:36:25;;;;;;;44.60;20.43;;;;;;;;;;5066232;28;20215;-78
2023/01/21 06:38:50;;;;;;;52.13;22.30;;;;;;;;;;5077614;28;20173;-78
2023/01/21 06:41:16;;;;;;;56.53;21.10;;;;;;;;;;5076405;28;20173;-78
2023/01/21 06:43:41;;;;;;;49.13;21.17;;;;;;;;;;5077224;28;20185;-78
2023/01/21 06:46:06;;;;;;;54.00;21.00;;;;;;;;;;5056227;28;20200;-78
2023/01/21 06:48:32;;;;;;;52.67;21.63;;;;;;;;;;5049611;28;20540;-79
2023/01/21 06:50:59;;;;;;;52.43;22.27;;;;;;;;;;5059304;28;20188;-79
2023/01/21 06:53:24;;;;;;;53.77;20.80;;;;;;;;;;5056532;28;20748;-78
2023/01/21 06:55:49;;;;;;;51.40;21.07;;;;;;;;;;5052432;28;20189;-79
2023/01/21 06:58:14;;;;;;;43.10;20.20;;;;;;;;;;5053232;28;20170;-78
2023/01/21 07:00:39;;;;;;;50.60;21.50;;;;;;;;;;5053742;28;20272;-78
2023/01/21 07:03:05;;;;;;;46.37;19.77;;;;;;;;;;5055603;28;20553;-78
2023/01/21 07:05:30;;;;;;;52.53;21.57;;;;;;;;;;5056391;28;20272;-78
2023/01/21 07:07:56;;;;;;;54.13;21.63;;;;;;;;;;5034671;28;20243;-78
2023/01/21 07:10:22;;;;;;;52.50;21.80;;;;;;;;;;5051292;28;20190;-79
2023/01/21 07:12:47;;;;;;;55.13;20.63;;;;;;;;;;5054531;28;20188;-79
2023/01/21 07:15:12;;;;;;;51.37;20.43;;;;;;;;;;5064334;28;20532;-77
2023/01/21 07:17:37;;;;;;;55.50;20.77;;;;;;;;;;5053392;28;20228;-78
2023/01/21 07:20:03;;;;;;;61.70;22.70;;;;;;;;;;5067829;28;20589;-76
2023/01/21 07:22:29;;;;;;;67.40;23.00;;;;;;;;;;5057245;28;20184;-77
2023/01/21 07:24:54;;;;;;;61.07;22.30;;;;;;;;;;5070748;28;20178;-77
2023/01/21 07:27:19;;;;;;;67.60;23.73;;;;;;;;;;5071354;28;20305;-77
2023/01/21 07:29:44;;;;;;;64.87;23.67;;;;;;;;;;5070516;28;20172;-77
2023/01/21 07:32:09;;;;;;;72.13;23.67;;;;;;;;;;5056219;28;20212;-79
2023/01/21 07:34:35;;;;;;;70.43;23.80;;;;;;;;;;5072395;28;20180;-78
2023/01/21 07:37:00;;;;;;;69.40;22.53;;;;;;;;;;5033841;28;20600;-77
2023/01/21 07:39:25;;;;;;;64.97;24.10;;;;;;;;;;5062550;28;20189;-78
2023/01/21 07:41:50;;;;;;;70.50;22.97;;;;;;;;;;5068070;28;20238;-78
2023/01/21 07:44:16;;;;;;;67.60;24.73;;;;;;;;;;5053894;28;20169;-79
2023/01/21 07:46:41;;;;;;;72.53;24.57;;;;;;;;;;5070509;28;20200;-79
2023/01/21 07:49:07;;;;;;;76.17;25.23;;;;;;;;;;5070269;28;20175;-79
2023/01/21 07:51:32;;;;;;;80.60;25.10;;;;;;;;;;5070578;28;20180;-77
2023/01/21 07:53:57;;;;;;;96.30;26.90;;;;;;;;;;5070811;28;20181;-77
2023/01/21 07:56:25;;;;;;;66.00;25.00;;;;;;;;;;5074596;28;20721;-77
2023/01/21 07:58:50;;;;;;;73.43;25.20;;;;;;;;;;5080333;28;20194;-78
2023/01/21 08:01:16;;;;;;;108.73;25.80;;;;;;;;;;5075883;28;20169;-78
2023/01/21 08:03:41;;;;;;;63.93;24.63;;;;;;;;;;5069590;28;20657;-78
2023/01/21 08:06:06;;;;;;;67.20;23.77;;;;;;;;;;5068606;28;20200;-78
2023/01/21 08:08:33;;;;;;;60.10;22.80;;;;;;;;;;5068668;28;20251;-78
2023/01/21 08:10:58;;;;;;;62.13;21.43;;;;;;;;;;5067422;28;20181;-77
2023/01/21 08:13:23;;;;;;;71.17;23.30;;;;;;;;;;5068999;28;20181;-77
2023/01/21 08:15:52;;;;;;;59.93;22.17;;;;;;;;;;5062998;28;20201;-77
2023/01/21 08:18:18;;;;;;;85.23;24.33;;;;;;;;;;5046900;28;20241;-78
2023/01/21 08:20:43;;;;;;;59.20;23.07;;;;;;;;;;5071881;28;20184;-77
2023/01/21 08:23:09;;;;;;;82.37;24.40;;;;;;;;;;5050697;28;20216;-77
2023/01/21 08:25:34;;;;;;;90.27;25.40;;;;;;;;;;5041965;28;20638;-77
2023/01/21 08:27:59;;;;;;;67.67;23.57;;;;;;;;;;5053536;28;20714;-77
2023/01/21 08:30:24;;;;;;;104.17;24.50;;;;;;;;;;5054869;28;20184;-77
2023/01/21 08:32:50;;;;;;;78.63;23.23;;;;;;;;;;5051674;28;20642;-77
2023/01/21 08:35:15;;;;;;;57.33;22.63;;;;;;;;;;5054647;28;20192;-78
2023/01/21 08:37:40;;;;;;;63.80;24.00;;;;;;;;;;5052704;28;20196;-79
2023/01/21 08:40:06;;;;;;;72.97;23.97;;;;;;;;;;5056803;28;20174;-79
2023/01/21 08:42:31;;;;;;;66.73;24.13;;;;;;;;;;5054866;28;20192;-77
2023/01/21 08:44:56;;;;;;;73.60;26.20;;;;;;;;;;5060023;28;20173;-79
2023/01/21 08:47:21;;;;;;;58.43;23.73;;;;;;;;;;5061159;28;20201;-79
2023/01/21 08:49:47;;;;;;;59.73;22.90;;;;;;;;;;5057142;28;20182;-78
2023/01/21 08:52:12;;;;;;;55.67;21.27;;;;;;;;;;5060461;28;20630;-76
2023/01/21 08:54:37;;;;;;;66.70;23.83;;;;;;;;;;5056681;28;20738;-77
2023/01/21 08:57:02;;;;;;;56.37;22.13;;;;;;;;;;5056623;28;20246;-77
2023/01/21 08:59:28;;;;;;;58.83;23.00;;;;;;;;;;5041429;28;20186;-78
2023/01/21 09:01:54;;;;;;;63.27;25.17;;;;;;;;;;5058036;28;20177;-77
2023/01/21 09:04:19;;;;;;;56.77;21.00;;;;;;;;;;5038614;28;20550;-78
2023/01/21 09:06:45;;;;;;;57.07;21.63;;;;;;;;;;5055613;28;20224;-78
2023/01/21 09:09:10;;;;;;;70.80;23.80;;;;;;;;;;5056993;28;20211;-78
2023/01/21 09:11:35;;;;;;;61.40;21.57;;;;;;;;;;5053632;28;20215;-78
2023/01/21 09:14:02;;;;;;;84.13;23.80;;;;;;;;;;5054123;28;20717;-78
2023/01/21 09:16:28;;;;;;;62.63;23.20;;;;;;;;;;5052009;28;20251;-78
2023/01/21 09:18:53;;;;;;;69.27;23.10;;;;;;;;;;5054142;28;20182;-78
2023/01/21 09:21:18;;;;;;;72.07;25.37;;;;;;;;;;5037926;28;20173;-78
2023/01/21 09:23:43;;;;;;;65.00;22.57;;;;;;;;;;5055497;28;20180;-77
2023/01/21 09:26:12;;;;;;;56.10;22.23;;;;;;;;;;5054486;28;20815;-78
2023/01/21 09:28:37;;;;;;;61.53;20.67;;;;;;;;;;5055922;28;20540;-78
2023/01/21 09:31:07;;;;;;;59.90;21.87;;;;;;;;;;5035110;28;20213;-78
2023/01/21 09:33:33;;;;;;;66.30;21.47;;;;;;;;;;5055230;28;20217;-78
2023/01/21 09:35:59;;;;;;;62.80;23.37;;;;;;;;;;5053798;28;20627;-77
2023/01/21 09:38:25;;;;;;;70.47;25.53;;;;;;;;;;5051591;28;20226;-78
2023/01/21 09:40:51;;;;;;;70.87;24.57;;;;;;;;;;5056331;28;20210;-77
2023/01/21 09:43:20;;;;;;;64.53;22.97;;;;;;;;;;5050133;28;20185;-78
2023/01/21 09:45:46;;;;;;;70.97;23.90;;;;;;;;;;5058719;28;20197;-78
2023/01/21 09:48:21;;;;;;;56.97;21.87;;;;;;;;;;5056602;28;20181;-78
2023/01/21 09:50:48;;;;;;;73.47;24.13;;;;;;;;;;5057826;28;20188;-78
2023/01/21 09:53:23;;;;;;;64.17;24.13;;;;;;;;;;5056554;28;20182;-78
2023/01/21 09:55:48;;;;;;;56.30;22.57;;;;;;;;;;5054084;28;20204;-78
2023/01/21 09:58:20;;;;;;;61.63;22.37;;;;;;;;;;5038287;28;20268;-78
2023/01/21 10:00:50;;;;;;;68.27;23.03;;;;;;;;;;5057445;28;20231;-78
2023/01/21 10:03:18;;;;;;;67.47;22.97;;;;;;;;;;5068077;28;20201;-78
2023/01/21 10:08:45;;;;;;;59.03;21.93;;;;;;;;;;5071055;28;20226;-72
2023/01/21 10:11:19;;;;;;;58.63;22.10;;;;;;;;;;5075059;28;20180;-72
2023/01/21 10:13:44;;;;;;;53.93;21.67;;;;;;;;;;5072657;28;20180;-72
2023/01/21 10:16:24;;;;;;;53.40;23.20;;;;;;;;;;5081200;28;20200;-71
2023/01/21 10:18:50;;;;;;;62.27;24.13;;;;;;;;;;5064373;28;20299;-70
2023/01/21 10:21:27;;;;;;;53.20;21.47;;;;;;;;;;5069959;28;20177;-71
2023/01/21 10:23:59;;;;;;;58.50;23.97;;;;;;;;;;5050707;28;21043;-71
2023/01/21 10:26:26;;;;;;;53.90;21.63;;;;;;;;;;5068864;28;20695;-72
2023/01/21 10:28:52;;;;;;;48.50;20.70;;;;;;;;;;5066801;28;20178;-72
2023/01/21 10:31:20;;;;;;;55.07;21.63;;;;;;;;;;5068888;28;20179;-72
2023/01/21 10:33:46;;;;;;;53.83;21.00;;;;;;;;;;5068134;28;20202;-71
2023/01/21 10:36:20;;;;;;;56.97;21.20;;;;;;;;;;5057640;28;20274;-72
2023/01/21 10:38:45;;;;;;;48.67;20.63;;;;;;;;;;5054350;28;20209;-72
2023/01/21 10:41:22;;;;;;;54.67;23.93;;;;;;;;;;5053979;28;20258;-72
2023/01/21 10:44:03;;;;;;;52.13;21.13;;;;;;;;;;5053676;28;20185;-72
2023/01/21 10:46:46;;;;;;;48.67;20.80;;;;;;;;;;5065371;28;20172;-72
2023/01/21 10:49:12;;;;;;;47.93;19.80;;;;;;;;;;5051018;28;20201;-71
2023/01/21 10:51:41;;;;;;;50.53;21.43;;;;;;;;;;5066913;28;20592;-71
2023/01/21 10:54:25;;;;;;;46.17;19.90;;;;;;;;;;5058599;28;20181;-71
2023/01/21 10:56:58;;;;;;;44.20;20.73;;;;;;;;;;5063460;28;20240;-71
2023/01/21 10:59:26;;;;;;;45.30;20.90;;;;;;;;;;5068643;28;20173;-72
2023/01/21 11:02:01;;;;;;;42.30;18.00;;;;;;;;;;5070992;28;20210;-71
2023/01/21 11:04:27;;;;;;;45.37;19.53;;;;;;;;;;5064665;28;20176;-72
2023/01/21 11:07:01;;;;;;;43.63;18.13;;;;;;;;;;5066270;28;20747;-72
2023/01/21 11:09:28;;;;;;;38.73;18.50;;;;;;;;;;5060442;28;20188;-72
2023/01/21 11:11:53;;;;;;;43.93;19.60;;;;;;;;;;5064926;28;20189;-72
2023/01/21 11:14:19;;;;;;;43.90;19.67;;;;;;;;;;5049546;28;20195;-73
2023/01/21 11:16:45;;;;;;;44.43;18.67;;;;;;;;;;5066654;28;20204;-76
2023/01/21 11:19:12;;;;;;;43.03;18.27;;;;;;;;;;5069696;28;20180;-72
2023/01/21 11:21:38;;;;;;;41.33;18.40;;;;;;;;;;5063969;28;20240;-72
2023/01/21 11:24:18;;;;;;;40.67;18.83;;;;;;;;;;5062498;28;20177;-72
2023/01/21 11:26:49;;;;;;;38.83;18.17;;;;;;;;;;5067583;28;20225;-72
2023/01/21 11:29:15;;;;;;;37.97;17.63;;;;;;;;;;5061343;28;20562;-72
2023/01/21 11:31:42;;;;;;;36.10;16.33;;;;;;;;;;5054486;28;20231;-72
2023/01/21 11:34:18;;;;;;;39.10;16.30;;;;;;;;;;5068594;28;20176;-72
2023/01/21 11:37:03;;;;;;;41.80;17.37;;;;;;;;;;5059617;28;20207;-72
2023/01/21 11:39:30;;;;;;;42.27;16.43;;;;;;;;;;5059422;28;20181;-74
2023/01/21 11:42:04;;;;;;;34.73;15.23;;;;;;;;;;5063757;28;20188;-72
2023/01/21 11:44:31;;;;;;;33.33;15.70;;;;;;;;;;5059578;28;20176;-72
2023/01/21 11:46:56;;;;;;;39.77;17.07;;;;;;;;;;5059523;28;20230;-72
2023/01/21 11:49:28;;;;;;;36.87;16.93;;;;;;;;;;5058455;28;20174;-72
2023/01/21 11:52:12;;;;;;;40.47;18.47;;;;;;;;;;5058887;28;20188;-75
2023/01/21 11:54:39;;;;;;;34.43;17.77;;;;;;;;;;5063085;28;20267;-74
2023/01/21 11:57:05;;;;;;;46.20;17.83;;;;;;;;;;5045708;28;20216;-74
2023/01/21 11:59:34;;;;;;;35.37;16.67;;;;;;;;;;5052915;28;20184;-74
2023/01/21 12:02:02;;;;;;;36.90;18.90;;;;;;;;;;5068263;28;20181;-74
2023/01/21 12:04:29;;;;;;;47.50;18.70;;;;;;;;;;5057986;28;20264;-75
2023/01/21 12:06:57;;;;;;;38.87;18.37;;;;;;;;;;5066332;28;20209;-72
2023/01/21 12:09:23;;;;;;;44.27;19.00;;;;;;;;;;5060423;28;20177;-75
2023/01/21 12:12:08;;;;;;;35.70;16.90;;;;;;;;;;5059676;28;20189;-72
2023/01/21 12:14:40;;;;;;;32.33;18.13;;;;;;;;;;5066267;28;20569;-72
2023/01/21 12:17:05;;;;;;;33.10;16.50;;;;;;;;;;5072115;28;20213;-73
2023/01/21 12:19:41;;;;;;;35.30;17.80;;;;;;;;;;5062953;28;20192;-73
2023/01/21 12:22:24;;;;;;;35.40;17.43;;;;;;;;;;5070855;28;20227;-73
2023/01/21 12:25:08;;;;;;;33.60;17.60;;;;;;;;;;5066545;28;20263;-73
2023/01/21 12:27:33;;;;;;;31.70;16.83;;;;;;;;;;5057563;28;20287;-72
2023/01/21 12:30:08;;;;;;;34.67;15.90;;;;;;;;;;5046719;28;20713;-72
2023/01/21 12:32:37;;;;;;;35.93;16.90;;;;;;;;;;5041447;28;20287;-73
2023/01/21 12:35:21;;;;;;;33.47;17.80;;;;;;;;;;5064379;28;20185;-73
2023/01/21 12:37:52;;;;;;;35.97;18.07;;;;;;;;;;5055663;28;20281;-72
2023/01/21 12:40:35;;;;;;;36.77;16.13;;;;;;;;;;5052687;28;20182;-73
2023/01/21 12:43:27;;;;;;;32.50;16.40;;;;;;;;;;5056367;28;20188;-73
2023/01/21 12:46:01;;;;;;;38.37;17.57;;;;;;;;;;5033765;28;20311;-72
2023/01/21 12:48:29;;;;;;;33.27;16.93;;;;;;;;;;5056427;28;20201;-73
2023/01/21 12:51:05;;;;;;;35.13;17.73;;;;;;;;;;5061103;28;20173;-73
2023/01/21 12:53:34;;;;;;;39.30;18.80;;;;;;;;;;5057419;28;20260;-73
2023/01/21 12:56:18;;;;;;;34.80;16.77;;;;;;;;;;5038055;28;20240;-73
2023/01/21 12:58:47;;;;;;;36.80;17.10;;;;;;;;;;5058766;28;20192;-73
2023/01/21 13:01:15;;;;;;;35.60;15.93;;;;;;;;;;5052444;28;20189;-72
2023/01/21 13:03:47;;;;;;;40.20;17.73;;;;;;;;;;5043158;28;20621;-72
2023/01/21 13:06:27;;;;;;;39.33;17.30;;;;;;;;;;5053420;28;20209;-73
2023/01/21 13:09:06;;;;;;;34.23;16.30;;;;;;;;;;5056386;28;20180;-73
2023/01/21 13:11:51;;;;;;;35.73;15.87;;;;;;;;;;5039779;28;20681;-73
2023/01/21 13:14:20;;;;;;;36.13;16.53;;;;;;;;;;5052148;28;20201;-72
2023/01/21 13:16:50;;;;;;;31.47;16.73;;;;;;;;;;5054097;28;20205;-73
2023/01/21 13:19:15;;;;;;;36.63;17.47;;;;;;;;;;5055520;28;20428;-72
2023/01/21 13:21:47;;;;;;;36.20;17.83;;;;;;;;;;5055859;28;20674;-73
2023/01/21 13:24:31;;;;;;;31.60;16.30;;;;;;;;;;5052172;28;20176;-73
2023/01/21 13:27:08;;;;;;;37.97;17.13;;;;;;;;;;5056054;28;20197;-74
2023/01/21 13:29:43;;;;;;;34.43;16.83;;;;;;;;;;5039441;28;20525;-73
2023/01/21 13:32:14;;;;;;;31.97;17.13;;;;;;;;;;5060858;28;20525;-73
2023/01/21 13:34:54;;;;;;;34.43;17.53;;;;;;;;;;5054478;28;20177;-73
2023/01/21 13:37:27;;;;;;;35.10;16.87;;;;;;;;;;5054820;28;20220;-73
2023/01/21 13:39:58;;;;;;;29.20;15.37;;;;;;;;;;5039122;28;20173;-74
2023/01/21 13:42:28;;;;;;;34.20;16.20;;;;;;;;;;5054677;28;20188;-73
2023/01/21 13:45:06;;;;;;;28.57;15.90;;;;;;;;;;5057628;28;20696;-73
2023/01/21 13:47:51;;;;;;;34.73;15.97;;;;;;;;;;5035817;28;22040;-73
2023/01/21 13:50:42;;;;;;;33.00;15.47;;;;;;;;;;5057147;28;20192;-73
2023/01/21 13:53:27;;;;;;;29.80;15.23;;;;;;;;;;5049809;28;20189;-73
2023/01/21 13:56:00;;;;;;;32.00;15.70;;;;;;;;;;5051935;28;22232;-73
2023/01/21 13:58:28;;;;;;;29.90;15.27;;;;;;;;;;5055416;28;20231;-73
2023/01/21 14:00:59;;;;;;;31.87;15.30;;;;;;;;;;5056099;28;20623;-73
2023/01/21 14:03:27;;;;;;;31.73;14.77;;;;;;;;;;5034703;28;20264;-72
2023/01/21 14:06:13;;;;;;;32.43;16.40;;;;;;;;;;5054390;28;20197;-73
2023/01/21 14:08:38;;;;;;;32.80;15.73;;;;;;;;;;5052544;28;20197;-74
2023/01/21 14:11:06;;;;;;;28.60;13.77;;;;;;;;;;5038514;28;20540;-74
2023/01/21 14:13:37;;;;;;;31.20;14.40;;;;;;;;;;5051709;28;20269;-74
2023/01/21 14:16:05;;;;;;;33.30;14.23;;;;;;;;;;5051847;28;20224;-73
2023/01/21 14:18:40;;;;;;;31.10;15.73;;;;;;;;;;5053158;28;20196;-73
2023/01/21 14:21:20;;;;;;;30.47;14.43;;;;;;;;;;5055931;28;20184;-73
2023/01/21 14:23:51;;;;;;;28.30;14.67;;;;;;;;;;5052629;28;20173;-73
2023/01/21 14:26:26;;;;;;;32.33;14.60;;;;;;;;;;5054867;28;20193;-73
2023/01/21 14:29:08;;;;;;;32.70;14.83;;;;;;;;;;5058178;28;20185;-73